Time;durP1;ratioP1;P1;durP2;ratioP2;P2;SDS_P1;SDS_P2;PMS_P1;PMS_P2;Temp;Humidity;BMP_temperature;BMP_pressure;BME280_temperature;BME280_humidity;BME280_pressure;Samples;Min_cycle;Max_cycle;Signal;HPM_P1;HPM_P2
2022/03/04 00:01:35;;;;;;;59.70;24.95;;;;;;;-2.07;100.00;99103.09;4192712;28;20048;-71
2022/03/04 00:03:35;;;;;;;57.92;25.38;;;;;;;-2.06;100.00;99107.44;4191082;28;20472;-71
2022/03/04 00:05:35;;;;;;;56.50;24.17;;;;;;;-2.09;100.00;99105.25;4192294;28;20077;-71
2022/03/04 00:07:36;;;;;;;55.60;22.88;;;;;;;-2.07;100.00;99105.81;4192927;28;20044;-71
2022/03/04 00:09:36;;;;;;;55.47;23.33;;;;;;;-2.07;100.00;99097.69;4192120;28;20044;-71
2022/03/04 00:11:37;;;;;;;52.35;23.90;;;;;;;-2.06;100.00;99109.34;4192110;28;20037;-71
2022/03/04 00:13:38;;;;;;;55.88;22.60;;;;;;;-2.08;100.00;99103.34;4194220;28;20292;-71
2022/03/04 00:15:39;;;;;;;57.05;24.05;;;;;;;-2.06;100.00;99103.91;4191283;28;20539;-71
2022/03/04 00:17:40;;;;;;;51.85;23.27;;;;;;;-2.08;100.00;99096.03;4190967;28;20044;-71
2022/03/04 00:19:41;;;;;;;54.20;20.98;;;;;;;-2.05;100.00;99105.53;4192614;28;20361;-71
2022/03/04 00:21:51;;;;;;;61.75;23.58;;;;;;;-2.07;100.00;99104.97;4193780;28;20525;-71
2022/03/04 00:23:51;;;;;;;59.67;23.45;;;;;;;-2.06;100.00;99109.34;4190315;28;20195;-71
2022/03/04 00:25:51;;;;;;;58.63;22.35;;;;;;;-2.06;100.00;99107.44;4190152;28;20464;-71
2022/03/04 00:27:52;;;;;;;68.43;23.52;;;;;;;-2.04;100.00;99101.72;4188978;28;20037;-71
2022/03/04 00:29:52;;;;;;;58.83;23.30;;;;;;;-2.02;100.00;99107.66;4191912;28;20036;-71
2022/03/04 00:31:53;;;;;;;57.17;22.75;;;;;;;-2.03;100.00;99101.44;4192300;28;20041;-71
2022/03/04 00:33:53;;;;;;;60.40;24.55;;;;;;;-2.05;99.50;99092.78;4192621;28;20033;-71
2022/03/04 00:35:54;;;;;;;53.03;22.35;;;;;;;-2.04;98.89;99097.09;4192604;28;20047;-71
2022/03/04 00:37:55;;;;;;;56.35;21.80;;;;;;;-2.07;99.65;99096.84;4191519;28;20036;-71
2022/03/04 00:39:57;;;;;;;62.03;23.20;;;;;;;-2.10;99.08;99098.22;4192007;28;20052;-71
2022/03/04 00:41:57;;;;;;;52.97;22.75;;;;;;;-2.08;98.64;99104.16;4205163;28;20044;-71
2022/03/04 00:43:58;;;;;;;56.60;22.23;;;;;;;-2.05;98.01;99103.63;4193160;28;20423;-71
2022/03/04 00:45:58;;;;;;;55.65;21.45;;;;;;;-2.05;98.26;99110.94;4192038;28;20048;-71
2022/03/04 00:47:58;;;;;;;61.38;23.90;;;;;;;-2.04;98.94;99107.16;4191538;28;20029;-71
2022/03/04 00:50:01;;;;;;;56.38;23.67;;;;;;;-2.07;99.19;99094.97;4193179;28;20040;-71
2022/03/04 00:52:02;;;;;;;61.97;23.67;;;;;;;-2.05;99.53;99097.41;4191882;28;20036;-71
2022/03/04 00:54:03;;;;;;;58.90;23.95;;;;;;;-2.06;99.21;99098.50;4190486;28;20032;-72
2022/03/04 00:56:06;;;;;;;55.10;20.88;;;;;;;-2.09;98.94;99093.59;4193593;28;20392;-71
2022/03/04 00:58:06;;;;;;;;;;;;;;;-2.05;98.37;99098.22;4190530;28;20028;-71
2022/03/04 01:00:07;;;;;;;60.33;22.58;;;;;;;-2.07;99.00;99088.72;4193522;28;20291;-71
2022/03/04 01:02:08;;;;;;;61.55;24.02;;;;;;;-2.11;98.44;99088.47;4191506;28;20124;-71
2022/03/04 01:04:08;;;;;;;57.83;22.17;;;;;;;-2.13;99.15;99092.56;4189706;28;20059;-71
2022/03/04 01:06:08;;;;;;;59.35;23.95;;;;;;;-2.13;99.22;99096.09;4191722;28;20059;-71
2022/03/04 01:08:09;;;;;;;55.20;22.33;;;;;;;-2.14;99.66;99091.75;4188496;28;20032;-71
2022/03/04 01:10:10;;;;;;;53.65;22.13;;;;;;;-2.14;98.58;99096.38;4190500;28;20522;-71
2022/03/04 01:12:10;;;;;;;69.97;24.45;;;;;;;-2.11;98.40;99087.66;4192325;28;20119;-71
2022/03/04 01:14:10;;;;;;;59.72;23.17;;;;;;;-2.14;99.17;99090.94;4191559;28;20130;-71
2022/03/04 01:16:11;;;;;;;57.58;23.92;;;;;;;-2.17;99.07;99092.28;4190868;28;20020;-71
2022/03/04 01:18:11;;;;;;;61.45;25.10;;;;;;;-2.17;99.40;99086.88;4191929;28;20085;-71
2022/03/04 01:20:12;;;;;;;64.00;23.35;;;;;;;-2.17;99.18;99086.06;4189939;28;20070;-71
2022/03/04 01:22:12;;;;;;;67.88;24.75;;;;;;;-2.22;99.50;99080.69;4192125;28;20020;-71
2022/03/04 01:24:12;;;;;;;60.85;22.33;;;;;;;-2.22;99.33;99089.63;4193011;28;20548;-71
2022/03/04 01:26:13;;;;;;;63.33;25.02;;;;;;;-2.24;99.34;99088.25;4191229;28;20526;-71
2022/03/04 01:28:14;;;;;;;70.47;26.10;;;;;;;-2.27;100.00;99090.44;4191369;28;20362;-71
2022/03/04 01:30:14;;;;;;;68.03;25.05;;;;;;;-2.31;100.00;99094.81;4188797;28;20024;-71
2022/03/04 01:32:15;;;;;;;67.20;26.23;;;;;;;-2.27;100.00;99089.66;4190961;28;20032;-70
2022/03/04 01:34:15;;;;;;;67.13;24.75;;;;;;;-2.25;100.00;99090.16;4190543;28;20074;-71
2022/03/04 01:36:16;;;;;;;61.50;23.95;;;;;;;-2.37;100.00;99078.84;4190107;28;20066;-71
2022/03/04 01:38:16;;;;;;;70.40;26.17;;;;;;;-2.33;100.00;99085.31;4188508;28;20295;-71
2022/03/04 01:40:16;;;;;;;65.90;26.00;;;;;;;-2.41;100.00;99084.00;4192449;28;20036;-71
2022/03/04 01:42:17;;;;;;;66.43;25.65;;;;;;;-2.36;100.00;99077.75;4193399;28;20024;-71
2022/03/04 01:44:17;;;;;;;63.50;24.88;;;;;;;-2.37;100.00;99085.09;4200768;28;20115;-71
2022/03/04 01:46:23;;;;;;;66.97;24.45;;;;;;;-2.48;100.00;99086.25;4195766;28;20043;-71
2022/03/04 01:48:24;;;;;;;69.13;26.15;;;;;;;-2.43;100.00;99094.31;4186110;28;20171;-71
2022/03/04 01:50:25;;;;;;;66.15;25.02;;;;;;;-2.48;100.00;99085.41;4185653;28;20064;-71
2022/03/04 01:52:26;;;;;;;71.90;25.40;;;;;;;-2.46;100.00;99094.09;4186124;28;20068;-71
2022/03/04 01:54:26;;;;;;;66.10;24.77;;;;;;;-2.48;100.00;99094.38;4200130;28;20845;-71
2022/03/04 01:56:26;;;;;;;63.80;22.65;;;;;;;-2.49;100.00;99081.06;4188842;28;20032;-71
2022/03/04 01:58:27;;;;;;;68.30;24.48;;;;;;;-2.51;100.00;99089.47;4185231;28;20029;-71
2022/03/04 02:00:27;;;;;;;64.25;24.27;;;;;;;-2.53;100.00;99096.28;4186235;28;20179;-71
2022/03/04 02:02:27;;;;;;;60.13;22.70;;;;;;;-2.57;100.00;99094.09;4191562;28;20032;-71
2022/03/04 02:04:28;;;;;;;62.97;23.63;;;;;;;-2.59;100.00;99093.56;4195525;28;20048;-71
2022/03/04 02:06:28;;;;;;;62.45;23.30;;;;;;;-2.58;100.00;99083.53;4185616;28;20264;-71
2022/03/04 02:08:29;;;;;;;62.45;24.73;;;;;;;-2.62;99.82;99088.72;4185074;28;20037;-71
2022/03/04 02:10:29;;;;;;;60.45;22.85;;;;;;;-2.60;99.55;99093.84;4185304;28;20388;-71
2022/03/04 02:12:29;;;;;;;62.28;24.25;;;;;;;-2.61;99.26;99093.03;4185493;28;20090;-71
2022/03/04 02:14:30;;;;;;;58.45;23.02;;;;;;;-2.63;100.00;99092.53;4195656;28;20295;-71
2022/03/04 02:16:38;;;;;;;61.10;23.65;;;;;;;-2.62;100.00;99093.31;4199841;28;20127;-71
2022/03/04 02:18:38;;;;;;;61.67;23.02;;;;;;;-2.62;99.83;99104.97;4200936;28;20042;-71
2022/03/04 02:20:43;;;;;;;69.18;24.17;;;;;;;-2.64;99.37;99104.44;4200617;28;20283;-71
2022/03/04 02:22:44;;;;;;;63.58;22.77;;;;;;;-2.63;98.40;99107.97;4184308;28;20040;-71
2022/03/04 02:24:44;;;;;;;65.88;24.13;;;;;;;-2.68;98.92;99095.22;4185834;28;20052;-71
2022/03/04 02:26:45;;;;;;;68.18;24.30;;;;;;;-2.66;98.31;99106.59;4184730;28;20365;-71
2022/03/04 02:28:45;;;;;;;64.15;23.42;;;;;;;-2.68;98.64;99110.69;4185741;28;20045;-71
2022/03/04 02:30:46;;;;;;;64.82;23.70;;;;;;;-2.69;98.18;99111.78;4186075;28;20045;-71
2022/03/04 02:32:46;;;;;;;65.25;24.55;;;;;;;-2.71;98.10;99113.94;4200978;28;20494;-71
2022/03/04 02:34:47;;;;;;;64.93;23.90;;;;;;;-2.76;99.25;99108.53;4199060;28;20480;-71
2022/03/04 02:36:47;;;;;;;71.07;26.40;;;;;;;-2.72;98.82;99106.91;4199496;28;20098;-71
2022/03/04 02:38:48;;;;;;;68.57;24.45;;;;;;;-2.75;98.48;99100.13;4197133;28;20365;-71
2022/03/04 02:40:48;;;;;;;70.78;25.35;;;;;;;-2.76;98.01;99106.63;4190616;28;20056;-71
2022/03/04 02:42:48;;;;;;;64.07;23.52;;;;;;;-2.76;98.26;99103.94;4184958;28;20044;-70
2022/03/04 02:44:49;;;;;;;69.43;25.42;;;;;;;-2.77;98.60;99110.44;4185855;28;20196;-70
2022/03/04 02:46:49;;;;;;;61.13;23.08;;;;;;;-2.78;98.62;99106.09;4191248;28;20390;-70
2022/03/04 02:48:49;;;;;;;70.25;24.73;;;;;;;-2.75;98.86;99110.97;4200589;28;20392;-70
2022/03/04 02:50:50;;;;;;;59.90;23.38;;;;;;;-2.73;98.47;99105.25;4200228;28;20059;-70
2022/03/04 02:52:50;;;;;;;68.28;25.55;;;;;;;-2.72;98.12;99106.91;4200191;28;20448;-70
2022/03/04 02:54:50;;;;;;;65.68;24.23;;;;;;;-2.76;97.69;99100.41;4199658;28;20462;-70
2022/03/04 02:56:51;;;;;;;71.57;24.80;;;;;;;-2.82;98.50;99102.31;4190054;28;20047;-70
2022/03/04 02:58:51;;;;;;;72.72;25.60;;;;;;;-2.84;97.78;99112.63;4184828;28;20166;-71
2022/03/04 03:00:52;;;;;;;66.20;25.15;;;;;;;-2.79;97.67;99122.63;4188205;28;20671;-71
2022/03/04 03:02:52;;;;;;;74.60;25.85;;;;;;;-2.77;97.42;99112.34;4188390;28;20048;-70
2022/03/04 03:04:52;;;;;;;66.35;24.40;;;;;;;-2.76;97.82;99113.94;4200118;28;20040;-70
2022/03/04 03:06:53;;;;;;;73.40;24.17;;;;;;;-2.73;97.70;99113.41;4203078;27;20091;-71
2022/03/04 03:08:53;;;;;;;72.65;24.80;;;;;;;-2.76;98.18;99112.06;4202518;28;20044;-71
2022/03/04 03:10:55;;;;;;;73.05;27.38;;;;;;;-2.76;99.13;99120.19;4193529;28;20369;-71
2022/03/04 03:12:55;;;;;;;69.43;24.95;;;;;;;-2.77;99.50;99115.84;4188049;28;20053;-71
2022/03/04 03:14:55;;;;;;;60.25;22.92;;;;;;;-2.75;99.87;99118.28;4187297;28;20121;-71
2022/03/04 03:16:56;;;;;;;70.50;25.77;;;;;;;-2.72;99.40;99123.16;4191407;28;20471;-71
2022/03/04 03:18:56;;;;;;;66.53;23.90;;;;;;;-2.72;98.11;99123.97;4188670;28;20532;-71
2022/03/04 03:20:56;;;;;;;64.10;25.77;;;;;;;-2.73;97.65;99130.47;4188118;28;20045;-71
2022/03/04 03:22:56;;;;;;;63.67;25.27;;;;;;;-2.81;97.97;99122.91;4187875;28;20297;-71
2022/03/04 03:24:57;;;;;;;73.10;26.08;;;;;;;-2.82;97.95;99116.66;4188203;28;20041;-71
2022/03/04 03:26:57;;;;;;;75.07;25.42;;;;;;;-2.84;97.42;99123.44;4187120;28;20132;-71
2022/03/04 03:28:58;;;;;;;63.85;23.90;;;;;;;-2.83;98.16;99123.16;4187933;28;20063;-71
2022/03/04 03:30:58;;;;;;;62.85;24.13;;;;;;;-2.80;97.34;99129.16;4188243;28;20071;-71
2022/03/04 03:32:58;;;;;;;64.80;23.35;;;;;;;-2.78;97.54;99130.50;4194441;28;20503;-71
2022/03/04 03:34:59;;;;;;;73.03;25.13;;;;;;;-2.87;98.04;99127.53;4203824;28;20066;-71
2022/03/04 03:36:59;;;;;;;72.25;25.33;;;;;;;-2.85;98.50;99132.66;4201256;28;20519;-71
2022/03/04 03:39:00;;;;;;;65.88;26.58;;;;;;;-2.89;98.12;99131.59;4187642;28;20412;-71
2022/03/04 03:41:00;;;;;;;65.97;24.27;;;;;;;-2.90;97.99;99129.97;4187862;28;20053;-71
2022/03/04 03:43:00;;;;;;;69.05;25.52;;;;;;;-2.90;98.52;99130.75;4187993;28;20082;-71
2022/03/04 03:45:01;;;;;;;67.25;24.75;;;;;;;-2.85;97.66;99144.31;4188207;28;20354;-71
2022/03/04 03:47:02;;;;;;;67.07;25.83;;;;;;;-2.87;98.68;99137.56;4186665;28;20460;-70
2022/03/04 03:49:02;;;;;;;70.53;24.63;;;;;;;-2.87;98.83;99130.25;4187597;28;20056;-70
2022/03/04 03:51:03;;;;;;;66.00;23.27;;;;;;;-2.84;98.87;99135.09;4192601;28;20047;-70
2022/03/04 03:53:03;;;;;;;63.67;25.00;;;;;;;-2.84;98.91;99135.09;4199068;28;20045;-70
2022/03/04 03:55:05;;;;;;;68.60;21.98;;;;;;;-2.88;98.67;99127.81;4189769;28;20041;-71
2022/03/04 03:57:05;;;;;;;57.13;21.65;;;;;;;-2.85;98.58;99138.88;4201319;28;20040;-71
2022/03/04 03:59:06;;;;;;;66.00;23.23;;;;;;;-2.88;98.57;99133.22;4188981;28;20040;-71
2022/03/04 04:01:06;;;;;;;70.30;25.13;;;;;;;-2.86;98.15;99144.59;4189546;28;20043;-71
2022/03/04 04:03:08;;;;;;;63.30;22.83;;;;;;;-2.89;98.15;99142.44;4199833;28;20436;-71
2022/03/04 04:05:11;;;;;;;65.05;23.33;;;;;;;-2.91;99.53;99142.69;4193754;28;20041;-71
2022/03/04 04:07:12;;;;;;;52.13;19.80;;;;;;;-2.87;98.94;99135.66;4186597;28;20072;-71
2022/03/04 04:09:12;;;;;;;66.32;22.88;;;;;;;-2.85;98.59;99136.19;4187264;28;20041;-71
2022/03/04 04:11:13;;;;;;;59.25;22.77;;;;;;;-2.79;98.00;99142.41;4188259;28;20045;-71
2022/03/04 04:13:14;;;;;;;64.60;23.55;;;;;;;-2.77;97.36;99151.06;4202829;28;20089;-71
2022/03/04 04:15:14;;;;;;;56.95;22.00;;;;;;;-2.77;97.57;99144.84;4201459;28;20036;-71
2022/03/04 04:17:14;;;;;;;69.05;22.48;;;;;;;-2.75;97.09;99145.38;4188454;28;20037;-71
2022/03/04 04:19:15;;;;;;;63.90;22.00;;;;;;;-2.78;97.69;99137.81;4187647;28;20518;-71
2022/03/04 04:21:15;;;;;;;60.83;21.95;;;;;;;-2.83;98.19;99135.91;4186548;28;20472;-71
2022/03/04 04:23:15;;;;;;;74.10;26.60;;;;;;;-2.90;98.22;99141.59;4186964;28;20049;-71
2022/03/04 04:25:16;;;;;;;66.60;22.40;;;;;;;-2.89;98.21;99131.59;4187511;28;20063;-71
2022/03/04 04:27:16;;;;;;;65.03;23.63;;;;;;;-2.95;97.45;99132.69;4186066;28;20072;-71
2022/03/04 04:29:16;;;;;;;67.57;24.80;;;;;;;-2.96;97.87;99137.28;4186930;28;20140;-71
2022/03/04 04:31:17;;;;;;;64.60;20.85;;;;;;;-2.92;97.02;99135.66;4187197;28;20041;-71
2022/03/04 04:33:17;;;;;;;61.85;22.63;;;;;;;-2.93;96.85;99131.31;4192073;28;20040;-71
2022/03/04 04:35:18;;;;;;;52.92;21.85;;;;;;;-2.88;96.58;99127.81;4190639;28;20777;-71
2022/03/04 04:37:18;;;;;;;59.85;23.73;;;;;;;-2.87;96.69;99132.94;4192114;28;20093;-71
2022/03/04 04:39:18;;;;;;;62.78;23.15;;;;;;;-2.89;97.09;99128.91;4192512;28;20370;-71
2022/03/04 04:41:19;;;;;;;63.00;24.17;;;;;;;-2.93;97.43;99125.91;4190328;28;20040;-71
2022/03/04 04:43:19;;;;;;;63.75;22.27;;;;;;;-2.92;97.26;99132.94;4190643;28;20043;-71
2022/03/04 04:45:20;;;;;;;61.55;20.60;;;;;;;-2.89;96.75;99118.88;4192277;28;20109;-71
2022/03/04 04:47:20;;;;;;;55.50;20.17;;;;;;;-2.82;96.51;99129.41;4189688;28;20043;-71
2022/03/04 04:49:21;;;;;;;60.47;20.58;;;;;;;-2.88;96.95;99134.03;4191961;28;20048;-71
2022/03/04 04:51:21;;;;;;;57.47;21.25;;;;;;;-2.87;96.85;99140.25;4192471;28;20054;-71
2022/03/04 04:53:21;;;;;;;60.50;22.13;;;;;;;-2.90;97.40;99135.38;4206664;28;20043;-71
2022/03/04 04:55:22;;;;;;;61.08;22.20;;;;;;;-2.92;96.23;99135.66;4192858;28;20185;-71
2022/03/04 04:57:22;;;;;;;57.85;20.50;;;;;;;-2.99;95.63;99132.41;4188470;28;20056;-71
2022/03/04 04:59:22;;;;;;;65.20;24.02;;;;;;;-3.05;95.44;99130.00;4190085;28;20052;-71
2022/03/04 05:01:23;;;;;;;58.55;22.92;;;;;;;-3.06;95.97;99137.31;4191313;28;20048;-71
2022/03/04 05:03:24;;;;;;;62.58;23.00;;;;;;;-3.07;95.47;99130.25;4190093;28;20040;-71
2022/03/04 05:05:24;;;;;;;54.83;20.98;;;;;;;-3.07;96.03;99124.03;4192624;28;20415;-71
2022/03/04 05:07:25;;;;;;;60.80;20.33;;;;;;;-3.08;96.36;99130.53;4190977;28;20230;-71
2022/03/04 05:09:26;;;;;;;60.55;23.13;;;;;;;-3.08;96.28;99130.53;4192317;28;20123;-71
2022/03/04 05:11:26;;;;;;;64.13;22.73;;;;;;;-3.07;95.87;99134.88;4193262;28;20036;-71
2022/03/04 05:13:27;;;;;;;65.50;22.38;;;;;;;-3.13;95.95;99134.88;4190748;28;20047;-71
2022/03/04 05:15:27;;;;;;;65.50;22.63;;;;;;;-3.09;95.81;99137.84;4189320;28;20343;-71
2022/03/04 05:17:27;;;;;;;56.95;19.92;;;;;;;-3.08;96.35;99144.06;4188591;28;20056;-71
2022/03/04 05:19:28;;;;;;;57.17;21.85;;;;;;;-3.09;96.32;99139.75;4189836;28;20071;-71
2022/03/04 05:21:28;;;;;;;52.88;19.27;;;;;;;-3.14;96.91;99146.00;4190303;28;20537;-71
2022/03/04 05:25:47;;;;;;;60.03;19.83;;;;;;;-3.03;96.48;99154.91;4192006;28;20731;-71
2022/03/04 05:27:48;;;;;;;54.80;19.35;;;;;;;-2.96;94.95;99137.28;4191334;28;20451;-71
2022/03/04 05:29:48;;;;;;;56.00;19.67;;;;;;;-2.92;94.69;99140.25;4190762;28;20044;-71
2022/03/04 05:31:48;;;;;;;49.30;17.58;;;;;;;-2.89;93.37;99135.13;4191233;28;20093;-71
2022/03/04 05:33:50;;;;;;;46.85;16.45;;;;;;;-2.80;93.22;99134.56;4189994;28;20040;-71
2022/03/04 05:35:51;;;;;;;48.50;18.42;;;;;;;-2.77;91.61;99134.00;4190674;28;20055;-71
2022/03/04 05:37:51;;;;;;;43.88;18.05;;;;;;;-2.77;91.95;99139.41;4190270;28;20472;-71
2022/03/04 05:39:54;;;;;;;46.30;17.45;;;;;;;-2.82;91.62;99127.50;4189678;28;20041;-71
2022/03/04 05:41:54;;;;;;;42.33;15.93;;;;;;;-2.81;91.81;99139.16;4195878;28;20403;-71
2022/03/04 05:43:55;;;;;;;51.25;20.90;;;;;;;-2.89;92.46;99135.13;4190605;28;20097;-71
2022/03/04 05:45:55;;;;;;;50.58;20.02;;;;;;;-2.96;93.56;99137.28;4191268;28;20043;-71
2022/03/04 05:47:55;;;;;;;65.18;23.63;;;;;;;-3.00;94.44;99143.50;4189883;28;20371;-71
2022/03/04 05:49:56;;;;;;;58.33;21.30;;;;;;;-3.04;94.55;99143.25;4190695;28;20071;-71
2022/03/04 05:51:56;;;;;;;68.72;22.65;;;;;;;-3.07;95.35;99142.97;4193342;28;20345;-71
2022/03/04 05:53:57;;;;;;;55.45;19.83;;;;;;;-3.06;95.09;99150.00;4190646;28;20077;-71
2022/03/04 05:56:00;;;;;;;56.70;20.23;;;;;;;-3.10;94.92;99152.47;4189077;28;20047;-71
2022/03/04 05:58:00;;;;;;;51.55;19.17;;;;;;;-3.09;95.13;99154.09;4190901;28;20044;-71
2022/03/04 06:00:01;;;;;;;50.08;18.80;;;;;;;-3.04;94.74;99162.22;4190864;28;20059;-71
2022/03/04 06:02:01;;;;;;;52.50;18.52;;;;;;;-3.02;95.00;99159.22;4191470;28;20115;-71
2022/03/04 06:04:02;;;;;;;56.58;20.05;;;;;;;-3.03;95.23;99171.97;4191588;28;20032;-72
2022/03/04 06:06:03;;;;;;;51.15;17.63;;;;;;;-3.09;95.36;99167.63;4134567;28;20505;-71
2022/03/04 06:08:04;;;;;;;48.17;19.40;;;;;;;-3.13;95.39;99177.38;4189526;28;20110;-72
2022/03/04 06:10:05;;;;;;;43.55;17.55;;;;;;;-3.19;94.50;99173.03;4191266;28;20029;-72
2022/03/04 06:12:05;;;;;;;51.67;18.40;;;;;;;-3.19;93.88;99186.59;4188459;28;20024;-72
2022/03/04 06:14:06;;;;;;;53.03;20.52;;;;;;;-3.21;94.86;99181.44;4191706;28;20047;-71
2022/03/04 06:16:07;;;;;;;55.08;19.88;;;;;;;-3.23;94.15;99188.19;4192189;28;20023;-72
2022/03/04 06:18:08;;;;;;;47.85;20.70;;;;;;;-3.25;94.51;99172.22;4189621;28;20722;-71
2022/03/04 06:20:09;;;;;;;49.03;18.05;;;;;;;-3.23;95.05;99183.59;4189293;28;20056;-71
2022/03/04 06:22:10;;;;;;;48.17;17.70;;;;;;;-3.12;94.45;99179.00;4190577;28;20021;-71
2022/03/04 06:24:10;;;;;;;45.20;17.25;;;;;;;-3.15;93.11;99180.34;4187322;28;20025;-71
2022/03/04 06:26:11;;;;;;;55.22;21.35;;;;;;;-3.18;93.83;99172.78;4194201;28;20032;-72
2022/03/04 06:28:11;;;;;;;66.22;24.08;;;;;;;-3.19;94.57;99181.97;4184960;28;20059;-71
2022/03/04 06:30:11;;;;;;;80.95;32.53;;;;;;;-3.16;94.19;99183.31;4185226;28;20036;-72
2022/03/04 06:32:14;;;;;;;69.82;25.83;;;;;;;-3.19;94.37;99176.56;4185120;28;20040;-71
2022/03/04 06:34:14;;;;;;;62.63;23.55;;;;;;;-3.21;94.06;99172.50;4186039;28;20376;-71
2022/03/04 06:36:14;;;;;;;65.78;27.67;;;;;;;-3.23;94.23;99185.47;4188727;28;20020;-72
2022/03/04 06:38:15;;;;;;;66.38;24.13;;;;;;;-3.26;94.57;99180.63;4188003;28;20060;-72
2022/03/04 06:40:16;;;;;;;61.40;22.80;;;;;;;-3.22;94.11;99189.84;4188479;28;20067;-71
2022/03/04 06:42:16;;;;;;;54.38;19.55;;;;;;;-3.24;93.62;99181.97;4188270;28;20032;-71
2022/03/04 06:44:16;;;;;;;49.90;17.58;;;;;;;-3.25;94.11;99184.94;4190574;28;20021;-71
2022/03/04 06:46:17;;;;;;;53.72;18.75;;;;;;;-3.25;94.62;99185.75;4194599;28;20314;-71
2022/03/04 06:48:24;;;;;;;52.85;17.02;;;;;;;-3.27;94.62;99187.13;4194034;28;20100;-71
2022/03/04 06:50:24;;;;;;;50.55;17.20;;;;;;;-3.27;95.28;99189.81;4193321;28;20076;-71
2022/03/04 06:52:24;;;;;;;44.15;17.65;;;;;;;-3.26;94.41;99188.75;4194038;28;20044;-71
2022/03/04 06:54:25;;;;;;;47.50;17.77;;;;;;;-3.22;94.35;99197.97;4195735;28;20048;-71
2022/03/04 06:56:25;;;;;;;52.65;17.45;;;;;;;-3.19;94.17;99200.13;4192904;28;20072;-71
2022/03/04 06:58:26;;;;;;;52.78;17.42;;;;;;;-3.17;93.71;99198.75;4193249;28;20142;-71
2022/03/04 07:00:27;;;;;;;48.92;17.60;;;;;;;-3.19;93.81;99192.00;4183401;28;20044;-71
2022/03/04 07:02:27;;;;;;;52.08;16.30;;;;;;;-3.16;94.07;99194.16;4185299;28;20052;-71
2022/03/04 07:04:28;;;;;;;52.90;20.65;;;;;;;-3.14;93.88;99200.13;4184707;28;20691;-71
2022/03/04 07:06:28;;;;;;;61.67;22.77;;;;;;;-3.13;93.76;99199.84;4187820;28;20169;-71
2022/03/04 07:08:30;;;;;;;58.97;20.80;;;;;;;-3.13;93.70;99201.75;4186569;28;20033;-71
2022/03/04 07:10:31;;;;;;;53.53;18.63;;;;;;;-3.12;92.16;99208.78;4181552;28;20051;-71
2022/03/04 07:12:31;;;;;;;45.20;17.58;;;;;;;-3.16;92.49;99213.09;4181964;28;20036;-71
2022/03/04 07:14:32;;;;;;;49.60;19.00;;;;;;;-3.16;92.92;99215.81;4181074;28;20045;-71
2022/03/04 07:16:32;;;;;;;51.80;18.77;;;;;;;-3.13;92.90;99207.97;4180634;28;20048;-71
2022/03/04 07:18:32;;;;;;;54.25;20.65;;;;;;;-3.12;92.81;99208.78;4184394;28;20040;-71
2022/03/04 07:20:33;;;;;;;48.72;17.40;;;;;;;-3.09;94.06;99218.25;4190379;28;20063;-71
2022/03/04 07:22:37;;;;;;;53.95;18.95;;;;;;;-3.04;93.21;99226.38;4185665;28;20040;-71
2022/03/04 07:24:37;;;;;;;54.72;17.63;;;;;;;-3.02;92.20;99224.22;4190980;28;20480;-71
2022/03/04 07:26:38;;;;;;;45.00;16.55;;;;;;;-3.02;92.49;99224.22;4190548;28;20048;-71
2022/03/04 07:28:38;;;;;;;51.38;17.95;;;;;;;-3.05;92.78;99228.28;4191684;28;20058;-71
2022/03/04 07:30:38;;;;;;;51.97;17.48;;;;;;;-3.07;93.15;99233.13;4183451;28;20048;-71
2022/03/04 07:32:40;;;;;;;58.80;18.42;;;;;;;-3.06;93.57;99223.94;4184346;28;20044;-71
2022/03/04 07:34:40;;;;;;;47.53;16.73;;;;;;;-3.03;94.03;99228.00;4182796;28;20028;-71
2022/03/04 07:36:40;;;;;;;51.13;19.13;;;;;;;-3.03;93.60;99228.81;4184748;28;20388;-71
2022/03/04 07:38:42;;;;;;;50.05;18.10;;;;;;;-2.96;92.76;99223.13;4184954;28;20267;-71
2022/03/04 07:40:46;;;;;;;56.35;20.33;;;;;;;-2.96;92.63;99223.13;4183675;28;20048;-71
2022/03/04 07:42:48;;;;;;;46.58;17.58;;;;;;;-2.94;92.67;99235.31;4189587;28;20540;-71
2022/03/04 07:44:49;;;;;;;47.83;17.95;;;;;;;-2.95;92.92;99220.16;4182632;28;20056;-71
2022/03/04 07:46:49;;;;;;;54.35;18.15;;;;;;;-2.91;93.15;99221.22;4184771;28;20056;-71
2022/03/04 07:48:50;;;;;;;53.97;17.38;;;;;;;-2.88;93.05;99223.41;4198062;28;20364;-71
2022/03/04 07:50:50;;;;;;;45.30;17.65;;;;;;;-2.85;92.71;99225.56;4194093;28;20044;-71
2022/03/04 07:52:51;;;;;;;48.97;17.40;;;;;;;-2.83;91.60;99236.91;4190083;28;20051;-71
2022/03/04 07:54:51;;;;;;;57.70;19.17;;;;;;;-2.80;91.41;99237.47;4188039;28;20052;-71
2022/03/04 07:56:52;;;;;;;52.92;17.20;;;;;;;-2.68;90.98;99240.72;4188230;28;20049;-71
2022/03/04 07:58:53;;;;;;;48.92;17.45;;;;;;;-2.64;89.46;99241.81;4202201;28;20044;-71
2022/03/04 08:00:53;;;;;;;56.70;19.70;;;;;;;-2.66;89.08;99249.38;4202634;28;20047;-71
2022/03/04 08:02:54;;;;;;;60.20;18.10;;;;;;;-2.71;89.63;99243.97;4190191;28;20086;-71
2022/03/04 08:04:54;;;;;;;61.30;17.67;;;;;;;-2.72;89.91;99236.94;4188381;28;20048;-71
2022/03/04 08:06:55;;;;;;;57.92;20.50;;;;;;;-2.69;90.80;99247.22;4186016;28;20060;-71
2022/03/04 08:08:55;;;;;;;55.42;19.13;;;;;;;-2.70;90.45;99248.31;4188200;28;20037;-71
2022/03/04 08:10:56;;;;;;;52.92;18.40;;;;;;;-2.69;90.79;99249.91;4188339;28;20059;-71
2022/03/04 08:12:56;;;;;;;56.40;19.73;;;;;;;-2.74;91.00;99241.78;4193112;28;20131;-71
2022/03/04 08:14:57;;;;;;;65.53;20.10;;;;;;;-2.74;92.15;99253.44;4187995;28;20228;-71
2022/03/04 08:16:57;;;;;;;62.75;19.90;;;;;;;-2.73;91.24;99246.97;4187029;28;20098;-71
2022/03/04 08:18:58;;;;;;;58.60;19.98;;;;;;;-2.73;91.43;99248.81;4187716;28;20047;-71
2022/03/04 08:20:59;;;;;;;60.30;20.35;;;;;;;-2.72;91.14;99250.47;4191003;28;20362;-71
2022/03/04 08:22:59;;;;;;;59.42;21.02;;;;;;;-2.70;91.60;99254.53;4193356;28;20033;-71
2022/03/04 08:25:00;;;;;;;53.33;19.42;;;;;;;-2.65;91.69;99251.81;4194266;28;20059;-71
2022/03/04 08:27:00;;;;;;;57.03;20.15;;;;;;;-2.58;91.19;99255.03;4186503;28;20082;-70
2022/03/04 08:29:01;;;;;;;54.58;21.08;;;;;;;-2.59;90.24;99252.63;4187975;28;20048;-70
2022/03/04 08:31:03;;;;;;;59.50;20.02;;;;;;;-2.60;90.99;99257.22;4186077;28;20048;-70
2022/03/04 08:33:04;;;;;;;64.85;20.58;;;;;;;-2.60;90.30;99259.94;4182466;28;20473;-71
2022/03/04 08:35:05;;;;;;;60.80;19.70;;;;;;;-2.60;90.83;99262.63;4183201;28;20098;-71
2022/03/04 08:37:05;;;;;;;69.80;21.40;;;;;;;-2.57;90.66;99256.66;4186275;28;20039;-71
2022/03/04 08:39:06;;;;;;;63.13;21.80;;;;;;;-2.56;90.52;99258.31;4187653;28;20469;-71
2022/03/04 08:41:07;;;;;;;64.13;21.27;;;;;;;-2.55;90.98;99256.41;4193703;28;20047;-71
2022/03/04 08:43:07;;;;;;;65.43;18.90;;;;;;;-2.51;90.21;99265.59;4190436;28;20127;-71
2022/03/04 08:45:09;;;;;;;50.33;18.92;;;;;;;-2.47;90.11;99272.13;4193567;28;20066;-71
2022/03/04 08:47:10;;;;;;;60.30;20.52;;;;;;;-2.50;90.42;99264.50;4191308;28;20519;-71
2022/03/04 08:49:10;;;;;;;60.55;21.38;;;;;;;-2.46;91.06;99268.31;4191704;28;20124;-71
2022/03/04 08:51:11;;;;;;;61.67;21.30;;;;;;;-2.48;91.08;99259.66;4193932;28;20045;-71
2022/03/04 08:53:11;;;;;;;59.10;19.80;;;;;;;-2.43;90.72;99267.75;4191928;28;20047;-71
2022/03/04 08:55:14;;;;;;;66.40;21.23;;;;;;;-2.43;90.64;99258.81;4193036;28;20076;-71
2022/03/04 08:57:14;;;;;;;60.95;19.40;;;;;;;-2.39;90.54;99263.44;4191117;28;20132;-71
2022/03/04 08:59:15;;;;;;;58.35;19.67;;;;;;;-2.33;89.53;99256.91;4189488;28;20122;-71
2022/03/04 09:01:15;;;;;;;58.22;19.48;;;;;;;-2.21;89.09;99256.63;4190679;28;20052;-71
2022/03/04 09:03:16;;;;;;;52.63;17.77;;;;;;;-2.07;87.29;99259.53;4188577;28;20040;-71
2022/03/04 09:05:17;;;;;;;52.63;19.83;;;;;;;-2.01;86.24;99255.72;4182312;28;20194;-71
2022/03/04 09:07:17;;;;;;;52.28;19.63;;;;;;;-2.00;86.05;99249.22;4182855;28;20498;-71
2022/03/04 09:09:17;;;;;;;56.85;19.73;;;;;;;-2.01;86.72;99253.00;4183345;28;20040;-71
2022/03/04 09:11:18;;;;;;;62.70;19.45;;;;;;;-2.03;87.11;99252.50;4182517;28;20066;-71
2022/03/04 09:13:18;;;;;;;57.80;19.35;;;;;;;-2.03;87.28;99257.91;4182231;28;20036;-71
2022/03/04 09:15:19;;;;;;;53.88;19.00;;;;;;;-2.07;87.59;99263.09;4185497;28;20063;-71
2022/03/04 09:17:19;;;;;;;49.13;18.50;;;;;;;-2.09;87.18;99256.28;4184612;28;20044;-71